sensor_id;sensor_type;location;lat;lon;timestamp;pressure;altitude;pressure_sealevel;temperature;humidity
45894;BME280;31603;51.148;16.932;2022-07-23T00:00:13;100203.41;;;20.94;100.00
45894;BME280;31603;51.148;16.932;2022-07-23T00:02:41;100203.97;;;21.01;100.00
45894;BME280;31603;51.148;16.932;2022-07-23T00:05:08;100200.81;;;21.64;100.00
45894;BME280;31603;51.148;16.932;2022-07-23T00:07:35;100186.91;;;21.18;100.00
45894;BME280;31603;51.148;16.932;2022-07-23T00:10:01;100191.09;;;21.21;100.00
45894;BME280;31603;51.148;16.932;2022-07-23T00:12:29;100190.47;;;20.47;100.00
45894;BME280;31603;51.148;16.932;2022-07-23T00:14:55;100205.50;;;20.20;100.00
45894;BME280;31603;51.148;16.932;2022-07-23T00:17:22;100198.63;;;19.86;100.00
45894;BME280;31603;51.148;16.932;2022-07-23T00:19:50;100207.59;;;19.88;100.00
45894;BME280;31603;51.148;16.932;2022-07-23T00:22:16;100212.69;;;20.11;100.00
45894;BME280;31603;51.148;16.932;2022-07-23T00:24:43;100209.25;;;19.84;100.00
45894;BME280;31603;51.148;16.932;2022-07-23T00:27:09;100218.00;;;20.08;100.00
45894;BME280;31603;51.148;16.932;2022-07-23T00:29:36;100216.50;;;20.58;100.00
45894;BME280;31603;51.148;16.932;2022-07-23T00:32:03;100214.00;;;20.56;100.00
45894;BME280;31603;51.148;16.932;2022-07-23T00:34:30;100211.72;;;20.48;100.00
45894;BME280;31603;51.148;16.932;2022-07-23T00:36:57;100213.31;;;20.24;100.00
45894;BME280;31603;51.148;16.932;2022-07-23T00:39:24;100201.03;;;20.25;100.00
45894;BME280;31603;51.148;16.932;2022-07-23T00:41:50;100215.13;;;20.71;100.00
45894;BME280;31603;51.148;16.932;2022-07-23T00:44:18;100197.19;;;20.51;100.00
45894;BME280;31603;51.148;16.932;2022-07-23T00:46:46;100203.13;;;20.70;100.00
45894;BME280;31603;51.148;16.932;2022-07-23T00:49:12;100213.19;;;20.97;100.00
45894;BME280;31603;51.148;16.932;2022-07-23T00:51:39;100214.88;;;20.98;100.00
45894;BME280;31603;51.148;16.932;2022-07-23T00:54:08;100210.38;;;20.86;100.00
45894;BME280;31603;51.148;16.932;2022-07-23T00:56:35;100199.38;;;20.34;100.00
45894;BME280;31603;51.148;16.932;2022-07-23T00:59:02;100216.13;;;20.24;100.00
45894;BME280;31603;51.148;16.932;2022-07-23T01:01:28;100216.34;;;19.59;100.00
45894;BME280;31603;51.148;16.932;2022-07-23T01:03:55;100221.19;;;19.74;100.00
45894;BME280;31603;51.148;16.932;2022-07-23T01:06:21;100206.75;;;19.87;100.00
45894;BME280;31603;51.148;16.932;2022-07-23T01:08:49;100212.22;;;19.67;100.00
45894;BME280;31603;51.148;16.932;2022-07-23T01:11:18;100207.66;;;19.98;100.00
45894;BME280;31603;51.148;16.932;2022-07-23T01:13:44;100206.03;;;20.17;100.00
45894;BME280;31603;51.148;16.932;2022-07-23T01:16:11;100215.59;;;20.47;100.00
45894;BME280;31603;51.148;16.932;2022-07-23T01:18:37;100194.16;;;20.53;100.00
45894;BME280;31603;51.148;16.932;2022-07-23T01:21:04;100206.72;;;20.50;100.00
45894;BME280;31603;51.148;16.932;2022-07-23T01:23:32;100201.03;;;20.25;100.00
45894;BME280;31603;51.148;16.932;2022-07-23T01:25:59;100200.44;;;20.17;100.00
45894;BME280;31603;51.148;16.932;2022-07-23T01:28:27;100162.09;;;19.87;100.00
45894;BME280;31603;51.148;16.932;2022-07-23T01:30:53;100211.56;;;20.02;100.00
45894;BME280;31603;51.148;16.932;2022-07-23T01:33:19;100213.53;;;20.02;100.00
45894;BME280;31603;51.148;16.932;2022-07-23T01:35:46;100194.75;;;19.87;100.00
45894;BME280;31603;51.148;16.932;2022-07-23T01:38:12;100213.19;;;19.88;100.00
45894;BME280;31603;51.148;16.932;2022-07-23T01:40:40;100206.31;;;20.21;100.00
45894;BME280;31603;51.148;16.932;2022-07-23T01:43:08;100186.53;;;20.33;100.00
45894;BME280;31603;51.148;16.932;2022-07-23T01:45:34;100157.44;;;20.18;100.00
45894;BME280;31603;51.148;16.932;2022-07-23T01:48:01;100221.19;;;20.42;100.00
45894;BME280;31603;51.148;16.932;2022-07-23T01:50:27;100209.59;;;20.03;100.00
45894;BME280;31603;51.148;16.932;2022-07-23T01:52:54;100188.97;;;19.51;100.00
45894;BME280;31603;51.148;16.932;2022-07-23T01:55:20;100198.41;;;19.92;100.00
45894;BME280;31603;51.148;16.932;2022-07-23T01:57:48;100204.44;;;20.47;100.00
45894;BME280;31603;51.148;16.932;2022-07-23T02:00:15;100206.72;;;19.82;100.00
45894;BME280;31603;51.148;16.932;2022-07-23T02:02:41;100197.03;;;20.00;100.00
45894;BME280;31603;51.148;16.932;2022-07-23T02:05:08;100193.03;;;19.76;100.00
45894;BME280;31603;51.148;16.932;2022-07-23T02:07:35;100190.34;;;20.01;100.00
45894;BME280;31603;51.148;16.932;2022-07-23T02:10:01;100192.44;;;19.68;100.00
45894;BME280;31603;51.148;16.932;2022-07-23T02:12:28;100180.06;;;19.59;100.00
45894;BME280;31603;51.148;16.932;2022-07-23T02:14:56;100190.19;;;19.70;100.00
45894;BME280;31603;51.148;16.932;2022-07-23T02:17:23;100184.72;;;19.91;100.00
45894;BME280;31603;51.148;16.932;2022-07-23T02:19:50;100189.06;;;19.66;100.00
45894;BME280;31603;51.148;16.932;2022-07-23T02:22:16;100191.94;;;19.82;100.00
45894;BME280;31603;51.148;16.932;2022-07-23T02:24:43;100197.09;;;20.20;100.00
45894;BME280;31603;51.148;16.932;2022-07-23T02:27:09;100159.13;;;20.30;100.00
45894;BME280;31603;51.148;16.932;2022-07-23T02:29:35;100183.53;;;19.77;100.00
45894;BME280;31603;51.148;16.932;2022-07-23T02:32:04;100160.38;;;19.76;100.00
45894;BME280;31603;51.148;16.932;2022-07-23T02:34:30;100166.22;;;19.69;100.00
45894;BME280;31603;51.148;16.932;2022-07-23T02:36:57;100158.44;;;19.34;100.00
45894;BME280;31603;51.148;16.932;2022-07-23T02:39:23;100147.28;;;19.82;100.00
45894;BME280;31603;51.148;16.932;2022-07-23T02:41:50;100170.56;;;20.13;100.00
45894;BME280;31603;51.148;16.932;2022-07-23T02:44:16;100146.84;;;19.53;100.00
45894;BME280;31603;51.148;16.932;2022-07-23T02:46:43;100167.91;;;19.76;100.00
45894;BME280;31603;51.148;16.932;2022-07-23T02:49:10;100163.47;;;19.85;100.00
45894;BME280;31603;51.148;16.932;2022-07-23T02:51:37;100160.03;;;19.62;100.00
45894;BME280;31603;51.148;16.932;2022-07-23T02:54:03;100162.81;;;19.62;100.00
45894;BME280;31603;51.148;16.932;2022-07-23T02:56:30;100156.28;;;19.99;100.00
45894;BME280;31603;51.148;16.932;2022-07-23T02:58:57;100159.44;;;20.43;100.00
45894;BME280;31603;51.148;16.932;2022-07-23T03:01:23;100158.03;;;20.36;100.00
45894;BME280;31603;51.148;16.932;2022-07-23T03:03:50;100149.47;;;19.69;100.00
45894;BME280;31603;51.148;16.932;2022-07-23T03:06:18;100161.84;;;19.99;100.00
45894;BME280;31603;51.148;16.932;2022-07-23T03:08:44;100153.84;;;20.23;100.00
45894;BME280;31603;51.148;16.932;2022-07-23T03:11:11;100152.06;;;19.96;100.00
45894;BME280;31603;51.148;16.932;2022-07-23T03:13:37;100171.56;;;19.81;100.00
45894;BME280;31603;51.148;16.932;2022-07-23T03:16:05;100151.56;;;19.47;100.00
45894;BME280;31603;51.148;16.932;2022-07-23T03:18:32;100177.50;;;19.53;100.00
45894;BME280;31603;51.148;16.932;2022-07-23T03:20:58;100180.56;;;19.93;100.00
45894;BME280;31603;51.148;16.932;2022-07-23T03:23:26;100175.59;;;19.58;100.00
45894;BME280;31603;51.148;16.932;2022-07-23T03:25:53;100164.00;;;19.29;100.00
45894;BME280;31603;51.148;16.932;2022-07-23T03:28:19;100184.97;;;19.37;100.00
45894;BME280;31603;51.148;16.932;2022-07-23T03:30:47;100175.06;;;19.14;100.00
45894;BME280;31603;51.148;16.932;2022-07-23T03:33:13;100178.28;;;19.38;100.00
45894;BME280;31603;51.148;16.932;2022-07-23T03:35:41;100176.59;;;19.79;100.00
45894;BME280;31603;51.148;16.932;2022-07-23T03:38:08;100165.63;;;19.67;100.00
45894;BME280;31603;51.148;16.932;2022-07-23T03:40:36;100183.06;;;20.00;100.00
45894;BME280;31603;51.148;16.932;2022-07-23T03:43:02;100178.50;;;19.74;100.00
45894;BME280;31603;51.148;16.932;2022-07-23T03:45:30;100179.09;;;19.81;100.00
45894;BME280;31603;51.148;16.932;2022-07-23T03:47:57;100180.81;;;19.92;100.00
45894;BME280;31603;51.148;16.932;2022-07-23T03:50:24;100186.94;;;19.89;100.00
45894;BME280;31603;51.148;16.932;2022-07-23T03:52:50;100180.22;;;19.85;100.00
45894;BME280;31603;51.148;16.932;2022-07-23T03:55:17;100194.72;;;19.77;100.00
45894;BME280;31603;51.148;16.932;2022-07-23T03:57:45;100195.34;;;19.99;100.00
45894;BME280;31603;51.148;16.932;2022-07-23T04:00:12;100178.63;;;20.04;100.00
45894;BME280;31603;51.148;16.932;2022-07-23T04:02:39;63776.66;;;-146.80;100.00
45894;BME280;31603;51.148;16.932;2022-07-23T04:05:07;63776.66;;;-146.80;100.00
45894;BME280;31603;51.148;16.932;2022-07-23T04:07:35;63776.66;;;-146.80;100.00
45894;BME280;31603;51.148;16.932;2022-07-23T04:10:03;63776.66;;;-146.80;100.00
45894;BME280;31603;51.148;16.932;2022-07-23T04:12:29;100162.59;;;20.52;100.00
45894;BME280;31603;51.148;16.932;2022-07-23T04:14:57;100141.91;;;20.63;100.00
45894;BME280;31603;51.148;16.932;2022-07-23T04:17:23;100152.50;;;20.77;100.00
45894;BME280;31603;51.148;16.932;2022-07-23T04:19:50;100149.72;;;20.77;100.00
45894;BME280;31603;51.148;16.932;2022-07-23T04:22:17;100160.34;;;21.36;100.00
45894;BME280;31603;51.148;16.932;2022-07-23T04:24:43;100161.97;;;21.57;100.00
45894;BME280;31603;51.148;16.932;2022-07-23T04:27:09;100154.38;;;21.68;100.00
45894;BME280;31603;51.148;16.932;2022-07-23T04:29:36;100155.00;;;22.15;100.00
45894;BME280;31603;51.148;16.932;2022-07-23T04:32:05;100147.19;;;22.06;100.00
45894;BME280;31603;51.148;16.932;2022-07-23T04:34:31;100153.47;;;22.38;100.00
45894;BME280;31603;51.148;16.932;2022-07-23T04:36:57;100142.94;;;22.58;100.00
45894;BME280;31603;51.148;16.932;2022-07-23T04:39:24;100140.06;;;22.69;100.00
45894;BME280;31603;51.148;16.932;2022-07-23T04:41:50;100136.34;;;22.44;100.00
45894;BME280;31603;51.148;16.932;2022-07-23T04:44:17;100134.75;;;22.28;100.00
45894;BME280;31603;51.148;16.932;2022-07-23T04:46:43;100131.31;;;22.41;100.00
45894;BME280;31603;51.148;16.932;2022-07-23T04:49:11;100105.31;;;23.04;100.00
45894;BME280;31603;51.148;16.932;2022-07-23T04:51:37;100074.25;;;22.95;100.00
45894;BME280;31603;51.148;16.932;2022-07-23T04:54:04;100112.06;;;23.27;100.00
45894;BME280;31603;51.148;16.932;2022-07-23T04:56:30;100098.16;;;23.41;100.00
45894;BME280;31603;51.148;16.932;2022-07-23T04:58:57;100098.53;;;23.58;100.00
45894;BME280;31603;51.148;16.932;2022-07-23T05:01:23;100096.16;;;23.46;100.00
45894;BME280;31603;51.148;16.932;2022-07-23T05:03:50;100072.09;;;23.59;100.00
45894;BME280;31603;51.148;16.932;2022-07-23T05:06:21;100090.75;;;23.74;100.00
45894;BME280;31603;51.148;16.932;2022-07-23T05:08:49;100072.13;;;24.21;100.00
45894;BME280;31603;51.148;16.932;2022-07-23T05:11:16;100090.88;;;24.07;100.00
45894;BME280;31603;51.148;16.932;2022-07-23T05:13:42;100075.44;;;24.61;100.00
45894;BME280;31603;51.148;16.932;2022-07-23T05:16:09;100087.31;;;24.20;100.00
45894;BME280;31603;51.148;16.932;2022-07-23T05:18:35;100086.16;;;24.21;100.00
45894;BME280;31603;51.148;16.932;2022-07-23T05:21:01;100078.13;;;24.52;100.00
45894;BME280;31603;51.148;16.932;2022-07-23T05:23:29;100069.16;;;24.31;100.00
45894;BME280;31603;51.148;16.932;2022-07-23T05:25:56;100055.69;;;24.47;100.00
45894;BME280;31603;51.148;16.932;2022-07-23T05:28:23;100038.13;;;24.36;100.00
45894;BME280;31603;51.148;16.932;2022-07-23T05:30:50;100075.22;;;24.57;100.00
45894;BME280;31603;51.148;16.932;2022-07-23T05:33:18;100067.16;;;24.83;100.00
45894;BME280;31603;51.148;16.932;2022-07-23T05:35:44;100058.03;;;24.91;100.00
45894;BME280;31603;51.148;16.932;2022-07-23T05:38:12;100064.78;;;24.90;100.00
45894;BME280;31603;51.148;16.932;2022-07-23T05:40:39;100018.44;;;24.88;100.00
45894;BME280;31603;51.148;16.932;2022-07-23T05:43:08;100046.47;;;25.07;100.00
45894;BME280;31603;51.148;16.932;2022-07-23T05:45:34;100010.47;;;24.76;100.00
45894;BME280;31603;51.148;16.932;2022-07-23T05:48:01;100070.59;;;25.13;100.00
45894;BME280;31603;51.148;16.932;2022-07-23T05:50:27;100065.28;;;25.39;100.00
45894;BME280;31603;51.148;16.932;2022-07-23T05:52:54;100066.22;;;25.20;100.00
45894;BME280;31603;51.148;16.932;2022-07-23T05:55:20;100043.94;;;25.24;100.00
45894;BME280;31603;51.148;16.932;2022-07-23T05:57:48;100058.72;;;25.43;100.00
45894;BME280;31603;51.148;16.932;2022-07-23T06:00:15;100051.22;;;25.39;100.00
45894;BME280;31603;51.148;16.932;2022-07-23T06:02:41;100059.13;;;25.51;100.00
45894;BME280;31603;51.148;16.932;2022-07-23T06:05:08;100050.78;;;25.87;100.00
45894;BME280;31603;51.148;16.932;2022-07-23T06:07:35;100058.03;;;26.02;100.00
45894;BME280;31603;51.148;16.932;2022-07-23T06:10:02;100069.72;;;26.09;100.00
45894;BME280;31603;51.148;16.932;2022-07-23T06:12:29;100061.22;;;25.17;100.00
45894;BME280;31603;51.148;16.932;2022-07-23T06:14:57;100066.03;;;25.17;100.00
45894;BME280;31603;51.148;16.932;2022-07-23T06:17:24;63776.66;;;-146.80;100.00
45894;BME280;31603;51.148;16.932;2022-07-23T06:19:50;100064.72;;;25.09;100.00
45894;BME280;31603;51.148;16.932;2022-07-23T06:22:17;100071.84;;;25.34;100.00
45894;BME280;31603;51.148;16.932;2022-07-23T06:24:43;100055.91;;;25.43;100.00
45894;BME280;31603;51.148;16.932;2022-07-23T06:27:10;100052.47;;;25.47;100.00
45894;BME280;31603;51.148;16.932;2022-07-23T06:29:36;100044.75;;;25.38;100.00
45894;BME280;31603;51.148;16.932;2022-07-23T06:32:05;100059.13;;;25.64;100.00
45894;BME280;31603;51.148;16.932;2022-07-23T06:34:31;100051.38;;;25.70;100.00
45894;BME280;31603;51.148;16.932;2022-07-23T06:36:58;100046.38;;;25.95;100.00
45894;BME280;31603;51.148;16.932;2022-07-23T06:39:24;100044.94;;;25.83;100.00
45894;BME280;31603;51.148;16.932;2022-07-23T06:41:51;100046.00;;;26.10;100.00
45894;BME280;31603;51.148;16.932;2022-07-23T06:44:28;100029.22;;;26.05;100.00
45894;BME280;31603;51.148;16.932;2022-07-23T06:46:54;100029.22;;;26.05;100.00
45894;BME280;31603;51.148;16.932;2022-07-23T06:49:22;100031.09;;;26.54;99.11
45894;BME280;31603;51.148;16.932;2022-07-23T06:51:48;100032.41;;;26.48;99.55
45894;BME280;31603;51.148;16.932;2022-07-23T06:54:16;100012.72;;;26.57;97.92
45894;BME280;31603;51.148;16.932;2022-07-23T06:56:43;100021.03;;;27.16;94.29
45894;BME280;31603;51.148;16.932;2022-07-23T06:59:10;100010.38;;;26.81;95.79
45894;BME280;31603;51.148;16.932;2022-07-23T07:01:36;100019.69;;;26.82;97.96
45894;BME280;31603;51.148;16.932;2022-07-23T07:04:03;100007.34;;;26.47;100.00
45894;BME280;31603;51.148;16.932;2022-07-23T07:06:31;100026.09;;;27.05;98.16
45894;BME280;31603;51.148;16.932;2022-07-23T07:08:57;100016.19;;;27.16;97.00
45894;BME280;31603;51.148;16.932;2022-07-23T07:11:24;100018.69;;;26.86;100.00
45894;BME280;31603;51.148;16.932;2022-07-23T07:13:50;100010.44;;;26.59;99.54
45894;BME280;31603;51.148;16.932;2022-07-23T07:16:17;100020.59;;;26.69;100.00
45894;BME280;31603;51.148;16.932;2022-07-23T07:18:43;100006.16;;;27.01;96.91
45894;BME280;31603;51.148;16.932;2022-07-23T07:21:10;100021.69;;;27.13;99.03
45894;BME280;31603;51.148;16.932;2022-07-23T07:23:37;100018.44;;;27.36;94.47
45894;BME280;31603;51.148;16.932;2022-07-23T07:26:04;100030.09;;;27.44;94.49
45894;BME280;31603;51.148;16.932;2022-07-23T07:28:31;100015.19;;;27.12;94.95
45894;BME280;31603;51.148;16.932;2022-07-23T07:30:57;99996.91;;;26.78;96.86
45894;BME280;31603;51.148;16.932;2022-07-23T07:33:23;100010.44;;;27.21;94.20
45894;BME280;31603;51.148;16.932;2022-07-23T07:35:50;100012.13;;;27.31;93.36
45894;BME280;31603;51.148;16.932;2022-07-23T07:38:16;100012.50;;;27.07;93.79
45894;BME280;31603;51.148;16.932;2022-07-23T07:40:44;100009.66;;;27.38;93.14
45894;BME280;31603;51.148;16.932;2022-07-23T07:43:11;100009.84;;;27.59;92.76
45894;BME280;31603;51.148;16.932;2022-07-23T07:45:37;100007.56;;;27.61;91.11
45894;BME280;31603;51.148;16.932;2022-07-23T07:48:04;99994.25;;;27.70;90.25
45894;BME280;31603;51.148;16.932;2022-07-23T07:50:31;100003.47;;;28.11;88.76
45894;BME280;31603;51.148;16.932;2022-07-23T07:52:57;99996.78;;;28.24;85.47
45894;BME280;31603;51.148;16.932;2022-07-23T07:55:24;99987.47;;;28.58;80.70
45894;BME280;31603;51.148;16.932;2022-07-23T07:57:59;99962.41;;;27.78;81.86
45894;BME280;31603;51.148;16.932;2022-07-23T08:00:28;99968.38;;;27.86;81.03
45894;BME280;31603;51.148;16.932;2022-07-23T08:02:56;99991.91;;;27.55;88.33
45894;BME280;31603;51.148;16.932;2022-07-23T08:05:24;99985.69;;;27.93;81.23
45894;BME280;31603;51.148;16.932;2022-07-23T08:07:51;99988.94;;;27.60;85.21
45894;BME280;31603;51.148;16.932;2022-07-23T08:10:19;100002.97;;;28.26;79.33
45894;BME280;31603;51.148;16.932;2022-07-23T08:12:48;99997.97;;;27.97;82.19
45894;BME280;31603;51.148;16.932;2022-07-23T08:15:17;99973.66;;;28.30;78.92
45894;BME280;31603;51.148;16.932;2022-07-23T08:17:45;100003.75;;;27.74;83.46
45894;BME280;31603;51.148;16.932;2022-07-23T08:20:13;99997.81;;;27.93;84.05
45894;BME280;31603;51.148;16.932;2022-07-23T08:22:48;100012.63;;;28.51;77.54
45894;BME280;31603;51.148;16.932;2022-07-23T08:25:15;99998.81;;;28.41;77.97
45894;BME280;31603;51.148;16.932;2022-07-23T08:27:42;100019.56;;;28.71;75.90
45894;BME280;31603;51.148;16.932;2022-07-23T08:30:09;100009.28;;;28.14;80.40
45894;BME280;31603;51.148;16.932;2022-07-23T08:32:51;100009.16;;;29.01;74.32
45894;BME280;31603;51.148;16.932;2022-07-23T08:35:22;100010.03;;;28.84;73.18
45894;BME280;31603;51.148;16.932;2022-07-23T08:37:48;100007.59;;;29.12;72.17
45894;BME280;31603;51.148;16.932;2022-07-23T08:40:15;100000.97;;;29.46;68.79
45894;BME280;31603;51.148;16.932;2022-07-23T08:42:42;99994.91;;;28.80;70.66
45894;BME280;31603;51.148;16.932;2022-07-23T08:45:21;99991.28;;;29.18;69.11
45894;BME280;31603;51.148;16.932;2022-07-23T08:47:51;99971.88;;;28.99;66.49
45894;BME280;31603;51.148;16.932;2022-07-23T08:50:18;99951.69;;;28.62;66.58
45894;BME280;31603;51.148;16.932;2022-07-23T08:52:47;99963.84;;;29.10;64.13
45894;BME280;31603;51.148;16.932;2022-07-23T08:55:16;99988.00;;;29.37;64.89
45894;BME280;31603;51.148;16.932;2022-07-23T08:57:42;99978.53;;;28.94;65.35
45894;BME280;31603;51.148;16.932;2022-07-23T09:00:10;99984.56;;;29.31;65.08
45894;BME280;31603;51.148;16.932;2022-07-23T09:02:40;99983.75;;;29.60;64.00
45894;BME280;31603;51.148;16.932;2022-07-23T09:05:10;99985.69;;;29.68;61.79
45894;BME280;31603;51.148;16.932;2022-07-23T09:07:37;99993.00;;;29.40;62.60
45894;BME280;31603;51.148;16.932;2022-07-23T09:10:08;99996.22;;;29.59;61.50
45894;BME280;31603;51.148;16.932;2022-07-23T09:12:35;99999.03;;;30.31;58.22
45894;BME280;31603;51.148;16.932;2022-07-23T09:15:04;99987.84;;;29.92;58.32
45894;BME280;31603;51.148;16.932;2022-07-23T09:17:37;100014.38;;;30.51;56.89
45894;BME280;31603;51.148;16.932;2022-07-23T09:20:10;100016.25;;;29.24;60.70
45894;BME280;31603;51.148;16.932;2022-07-23T09:22:38;100032.88;;;30.36;58.91
45894;BME280;31603;51.148;16.932;2022-07-23T09:25:10;100034.91;;;31.02;54.16
45894;BME280;31603;51.148;16.932;2022-07-23T09:27:49;100036.75;;;30.64;55.76
45894;BME280;31603;51.148;16.932;2022-07-23T09:30:17;100032.94;;;30.48;56.92
45894;BME280;31603;51.148;16.932;2022-07-23T09:32:44;100036.69;;;30.40;59.94
45894;BME280;31603;51.148;16.932;2022-07-23T09:35:11;100022.69;;;29.93;64.71
45894;BME280;31603;51.148;16.932;2022-07-23T09:37:38;100013.38;;;29.63;67.54
45894;BME280;31603;51.148;16.932;2022-07-23T09:40:06;100012.09;;;29.51;68.18
45894;BME280;31603;51.148;16.932;2022-07-23T09:42:33;99996.75;;;29.53;67.38
45894;BME280;31603;51.148;16.932;2022-07-23T09:45:04;100003.72;;;29.64;66.16
45894;BME280;31603;51.148;16.932;2022-07-23T09:47:36;100037.50;;;28.84;76.75
45894;BME280;31603;51.148;16.932;2022-07-23T09:50:04;100075.97;;;28.06;88.26
45894;BME280;31603;51.148;16.932;2022-07-23T09:52:36;100047.69;;;27.32;97.43
45894;BME280;31603;51.148;16.932;2022-07-23T09:55:05;100080.81;;;27.18;100.00
45894;BME280;31603;51.148;16.932;2022-07-23T09:57:32;100069.78;;;26.54;100.00
45894;BME280;31603;51.148;16.932;2022-07-23T10:00:01;63776.66;;;-146.80;100.00
45894;BME280;31603;51.148;16.932;2022-07-23T10:02:31;100031.41;;;25.44;100.00
45894;BME280;31603;51.148;16.932;2022-07-23T10:05:00;100035.75;;;25.64;100.00
45894;BME280;31603;51.148;16.932;2022-07-23T10:07:27;100004.59;;;25.19;100.00
45894;BME280;31603;51.148;16.932;2022-07-23T10:10:00;100028.56;;;25.30;100.00
45894;BME280;31603;51.148;16.932;2022-07-23T10:12:28;100036.03;;;26.04;100.00
45894;BME280;31603;51.148;16.932;2022-07-23T10:15:13;100038.81;;;26.40;100.00
45894;BME280;31603;51.148;16.932;2022-07-23T10:17:39;100063.63;;;26.15;100.00
45894;BME280;31603;51.148;16.932;2022-07-23T10:20:06;100057.41;;;26.05;100.00
45894;BME280;31603;51.148;16.932;2022-07-23T10:22:35;100050.38;;;26.52;100.00
45894;BME280;31603;51.148;16.932;2022-07-23T10:25:22;100053.59;;;26.46;100.00
45894;BME280;31603;51.148;16.932;2022-07-23T10:28:04;100049.00;;;26.50;100.00
45894;BME280;31603;51.148;16.932;2022-07-23T10:30:51;99963.91;;;24.56;100.00
45894;BME280;31603;51.148;16.932;2022-07-23T10:33:32;100026.91;;;25.43;100.00
45894;BME280;31603;51.148;16.932;2022-07-23T10:36:08;100017.94;;;26.05;100.00
45894;BME280;31603;51.148;16.932;2022-07-23T10:38:40;100019.25;;;26.44;100.00
45894;BME280;31603;51.148;16.932;2022-07-23T10:41:11;100026.47;;;26.13;100.00
45894;BME280;31603;51.148;16.932;2022-07-23T10:43:38;100028.06;;;25.14;100.00
45894;BME280;31603;51.148;16.932;2022-07-23T10:46:24;100088.56;;;25.86;100.00
45894;BME280;31603;51.148;16.932;2022-07-23T10:49:22;100096.78;;;23.86;100.00
45894;BME280;31603;51.148;16.932;2022-07-23T10:52:18;100131.63;;;23.61;100.00
45894;BME280;31603;51.148;16.932;2022-07-23T10:54:46;100119.13;;;24.15;100.00
45894;BME280;31603;51.148;16.932;2022-07-23T10:57:16;100088.31;;;25.27;100.00
45894;BME280;31603;51.148;16.932;2022-07-23T11:00:20;100090.53;;;26.58;100.00
45894;BME280;31603;51.148;16.932;2022-07-23T11:02:48;100078.34;;;26.94;100.00
45894;BME280;31603;51.148;16.932;2022-07-23T11:05:16;100068.84;;;26.89;100.00
45894;BME280;31603;51.148;16.932;2022-07-23T11:08:10;100088.13;;;27.19;100.00
45894;BME280;31603;51.148;16.932;2022-07-23T11:10:44;99973.50;;;26.02;100.00
45894;BME280;31603;51.148;16.932;2022-07-23T11:13:49;100073.56;;;26.35;100.00
45894;BME280;31603;51.148;16.932;2022-07-23T11:16:25;100069.66;;;25.73;100.00
45894;BME280;31603;51.148;16.932;2022-07-23T11:21:51;100064.03;;;25.31;100.00
45894;BME280;31603;51.148;16.932;2022-07-23T11:24:23;100065.72;;;24.86;100.00
45894;BME280;31603;51.148;16.932;2022-07-23T11:26:54;100054.97;;;24.41;100.00
45894;BME280;31603;51.148;16.932;2022-07-23T11:29:44;100046.88;;;24.54;100.00
45894;BME280;31603;51.148;16.932;2022-07-23T11:32:23;100050.66;;;24.63;100.00
45894;BME280;31603;51.148;16.932;2022-07-23T11:34:51;100047.25;;;24.66;100.00
45894;BME280;31603;51.148;16.932;2022-07-23T11:37:31;100031.41;;;24.70;100.00
45894;BME280;31603;51.148;16.932;2022-07-23T11:39:58;100021.22;;;24.41;100.00
45894;BME280;31603;51.148;16.932;2022-07-23T11:42:24;100021.91;;;24.33;100.00
45894;BME280;31603;51.148;16.932;2022-07-23T11:44:52;100035.25;;;24.60;100.00
45894;BME280;31603;51.148;16.932;2022-07-23T11:47:23;100030.13;;;24.11;100.00
45894;BME280;31603;51.148;16.932;2022-07-23T11:49:53;100020.34;;;24.60;100.00
45894;BME280;31603;51.148;16.932;2022-07-23T11:52:20;100013.03;;;25.47;100.00
45894;BME280;31603;51.148;16.932;2022-07-23T11:54:49;100023.84;;;26.17;100.00
45894;BME280;31603;51.148;16.932;2022-07-23T11:57:16;99948.75;;;26.21;100.00
45894;BME280;31603;51.148;16.932;2022-07-23T11:59:43;100012.56;;;26.84;100.00
45894;BME280;31603;51.148;16.932;2022-07-23T12:02:15;100015.13;;;27.34;100.00
45894;BME280;31603;51.148;16.932;2022-07-23T12:04:44;100007.94;;;26.88;100.00
45894;BME280;31603;51.148;16.932;2022-07-23T12:07:29;100011.19;;;26.73;100.00
45894;BME280;31603;51.148;16.932;2022-07-23T12:09:57;99991.66;;;26.85;100.00
45894;BME280;31603;51.148;16.932;2022-07-23T12:12:24;100013.44;;;27.33;100.00
45894;BME280;31603;51.148;16.932;2022-07-23T12:14:52;100011.44;;;26.94;100.00
45894;BME280;31603;51.148;16.932;2022-07-23T12:17:21;100013.28;;;28.13;100.00
45894;BME280;31603;51.148;16.932;2022-07-23T12:19:53;99992.84;;;27.24;100.00
45894;BME280;31603;51.148;16.932;2022-07-23T12:22:24;100011.84;;;27.50;100.00
45894;BME280;31603;51.148;16.932;2022-07-23T12:24:55;100014.28;;;28.00;100.00
45894;BME280;31603;51.148;16.932;2022-07-23T12:27:22;100016.25;;;29.16;100.00
45894;BME280;31603;51.148;16.932;2022-07-23T12:29:49;100023.31;;;29.39;100.00
45894;BME280;31603;51.148;16.932;2022-07-23T12:32:17;100018.84;;;29.38;100.00
45894;BME280;31603;51.148;16.932;2022-07-23T12:34:48;100012.94;;;28.58;100.00
45894;BME280;31603;51.148;16.932;2022-07-23T12:37:27;100020.25;;;29.53;100.00
45894;BME280;31603;51.148;16.932;2022-07-23T12:39:54;100014.94;;;30.44;100.00
45894;BME280;31603;51.148;16.932;2022-07-23T12:42:20;100002.31;;;29.70;100.00